createdAt,value
2022-12-31T00:01:10.564Z,76.52
2022-12-31T00:03:37.289Z,78.52
2022-12-31T00:06:17.976Z,77.56
2022-12-31T00:08:44.827Z,75.73
2022-12-31T00:11:11.404Z,74.00
2022-12-31T00:13:38.116Z,73.51
2022-12-31T00:16:12.439Z,76.69
2022-12-31T00:18:39.593Z,79.11
2022-12-31T00:21:07.433Z,75.47
2022-12-31T00:23:34.070Z,77.16
2022-12-31T00:26:08.219Z,77.90
2022-12-31T00:28:35.863Z,78.16
2022-12-31T00:31:06.863Z,75.69
2022-12-31T00:33:33.418Z,77.26
2022-12-31T00:36:06.064Z,77.25
2022-12-31T00:38:32.480Z,74.25
2022-12-31T00:40:59.016Z,75.81
2022-12-31T00:43:25.371Z,75.68
2022-12-31T00:45:51.937Z,74.12
2022-12-31T00:48:18.312Z,74.80
2022-12-31T00:50:45.140Z,72.99
2022-12-31T00:53:11.491Z,74.42
2022-12-31T00:55:37.861Z,71.79
2022-12-31T00:58:04.244Z,72.60
2022-12-31T01:00:30.656Z,75.94
2022-12-31T01:02:57.086Z,73.41
2022-12-31T01:05:23.581Z,70.44
2022-12-31T01:07:49.945Z,74.53
2022-12-31T01:10:36.366Z,75.70
2022-12-31T01:13:02.767Z,74.04
2022-12-31T01:15:32.501Z,73.48
2022-12-31T01:17:59.700Z,75.58
2022-12-31T01:20:25.987Z,73.57
2022-12-31T01:22:52.467Z,73.34
2022-12-31T01:25:18.852Z,75.58
2022-12-31T01:27:45.268Z,74.35
2022-12-31T01:30:11.888Z,71.77
2022-12-31T01:32:38.236Z,75.20
2022-12-31T01:35:04.778Z,71.55
2022-12-31T01:37:31.119Z,71.61
2022-12-31T01:39:57.413Z,70.51
2022-12-31T01:42:23.754Z,70.81
2022-12-31T01:44:52.251Z,71.52
2022-12-31T01:47:21.938Z,72.79
2022-12-31T01:49:51.392Z,72.91
2022-12-31T01:52:27.425Z,72.52
2022-12-31T01:55:00.574Z,73.23
2022-12-31T01:57:31.657Z,71.16
2022-12-31T01:59:59.402Z,69.25
2022-12-31T02:02:28.727Z,70.96
2022-12-31T02:04:57.809Z,74.13
2022-12-31T02:07:30.515Z,70.51
2022-12-31T02:10:00.354Z,69.97
2022-12-31T02:12:27.143Z,70.54
2022-12-31T02:14:54.372Z,71.62
2022-12-31T02:17:31.343Z,74.42
2022-12-31T02:20:17.790Z,73.84
2022-12-31T02:22:56.434Z,71.96
2022-12-31T02:25:44.851Z,69.19
2022-12-31T02:28:17.292Z,69.75
2022-12-31T02:30:59.560Z,69.85
2022-12-31T02:33:32.060Z,70.05
2022-12-31T02:36:03.437Z,69.41
2022-12-31T02:38:35.912Z,70.44
2022-12-31T02:41:03.122Z,68.43
2022-12-31T02:43:29.520Z,67.33
2022-12-31T02:46:15.721Z,67.64
2022-12-31T02:48:54.272Z,69.51
2022-12-31T02:51:42.565Z,71.59
2022-12-31T02:54:18.821Z,69.22
2022-12-31T02:57:05.849Z,72.39
2022-12-31T02:59:53.811Z,68.11
2022-12-31T03:02:21.772Z,70.87
2022-12-31T03:05:06.724Z,69.70
2022-12-31T03:07:33.461Z,68.47
2022-12-31T03:10:00.997Z,68.77
2022-12-31T03:12:48.022Z,69.31
2022-12-31T03:15:20.521Z,73.17
2022-12-31T03:18:04.204Z,72.41
2022-12-31T03:20:51.035Z,70.58
2022-12-31T03:23:22.713Z,70.74
2022-12-31T03:25:49.037Z,72.75
2022-12-31T03:28:17.076Z,74.45
2022-12-31T03:30:45.681Z,73.88
2022-12-31T03:33:12.391Z,73.12
2022-12-31T03:35:39.378Z,71.56
2022-12-31T03:38:06.363Z,74.35
2022-12-31T03:40:34.938Z,74.69
2022-12-31T03:43:04.806Z,71.50
2022-12-31T03:45:40.140Z,69.53
2022-12-31T03:48:07.893Z,71.79
2022-12-31T03:50:45.632Z,75.28
2022-12-31T03:53:19.063Z,76.62
2022-12-31T03:55:48.801Z,80.08
2022-12-31T03:58:15.305Z,79.73
2022-12-31T04:00:48.595Z,76.92
2022-12-31T04:03:18.074Z,76.70
2022-12-31T04:05:50.405Z,74.49
2022-12-31T04:08:22.670Z,73.16
2022-12-31T04:10:56.085Z,73.56
2022-12-31T04:13:26.609Z,71.55
2022-12-31T04:15:59.130Z,69.24
2022-12-31T04:18:29.909Z,71.20
2022-12-31T04:21:07.277Z,73.20
2022-12-31T04:23:36.409Z,72.96
2022-12-31T04:26:02.821Z,70.27
2022-12-31T04:28:29.108Z,69.54
2022-12-31T04:30:55.398Z,69.36
2022-12-31T04:33:21.716Z,70.39
2022-12-31T04:35:48.148Z,72.37
2022-12-31T04:38:14.657Z,73.25
2022-12-31T04:41:01.227Z,72.79
2022-12-31T04:43:27.818Z,71.21
2022-12-31T04:45:54.206Z,69.31
2022-12-31T04:48:20.661Z,69.87
2022-12-31T04:50:47.237Z,71.83
2022-12-31T04:53:13.685Z,74.02
2022-12-31T04:55:41.485Z,76.94
2022-12-31T04:58:08.463Z,75.88
2022-12-31T05:00:34.938Z,73.94
2022-12-31T05:03:01.332Z,74.26
2022-12-31T05:05:27.769Z,75.16
2022-12-31T05:07:54.273Z,74.65
2022-12-31T05:10:20.842Z,76.04
2022-12-31T05:12:47.336Z,78.18
2022-12-31T05:15:13.814Z,81.05
2022-12-31T05:17:40.175Z,76.73
2022-12-31T05:20:07.141Z,75.37
2022-12-31T05:22:34.066Z,73.57
2022-12-31T05:25:01.175Z,75.82
2022-12-31T05:27:28.810Z,73.50
2022-12-31T05:29:55.174Z,72.32
2022-12-31T05:32:21.648Z,72.94
2022-12-31T05:34:48.201Z,72.59
2022-12-31T05:37:14.616Z,75.54
2022-12-31T05:39:41.835Z,72.72
2022-12-31T05:42:08.201Z,69.97
2022-12-31T05:44:34.566Z,71.28
2022-12-31T05:47:01.051Z,70.44
2022-12-31T05:49:27.480Z,72.11
2022-12-31T05:51:53.915Z,70.79
2022-12-31T05:54:20.494Z,70.36
2022-12-31T05:56:46.964Z,72.92
2022-12-31T05:59:13.904Z,71.98
2022-12-31T06:01:40.333Z,70.63
2022-12-31T06:04:06.733Z,70.70
2022-12-31T06:06:33.300Z,72.54
2022-12-31T06:08:59.724Z,75.12
2022-12-31T06:11:26.207Z,72.06
2022-12-31T06:13:52.677Z,71.28
2022-12-31T06:16:19.411Z,75.03
2022-12-31T06:18:50.710Z,74.61
2022-12-31T06:21:17.820Z,72.74
2022-12-31T06:23:44.241Z,74.97
2022-12-31T06:26:10.853Z,72.40
2022-12-31T06:28:37.199Z,72.80
2022-12-31T06:31:04.684Z,74.62
2022-12-31T06:33:31.649Z,73.05
2022-12-31T06:35:58.889Z,73.41
2022-12-31T06:38:26.158Z,74.89
2022-12-31T06:40:52.893Z,79.15
2022-12-31T06:43:19.372Z,75.54
2022-12-31T06:45:45.705Z,75.36
2022-12-31T06:48:12.194Z,76.67
2022-12-31T06:50:38.667Z,81.40
2022-12-31T06:53:05.196Z,79.12
2022-12-31T06:55:31.984Z,76.92
2022-12-31T06:57:58.631Z,73.50
2022-12-31T07:00:25.071Z,75.71
2022-12-31T07:03:17.729Z,76.92
2022-12-31T07:05:44.054Z,78.18
2022-12-31T07:08:26.349Z,77.54
2022-12-31T07:10:57.149Z,72.06
2022-12-31T07:13:42.513Z,73.90
2022-12-31T07:16:20.469Z,73.65
2022-12-31T07:19:05.567Z,75.00
2022-12-31T07:21:34.956Z,78.04
2022-12-31T07:24:01.923Z,73.58
2022-12-31T07:26:28.192Z,73.74
2022-12-31T07:29:01.674Z,75.32
2022-12-31T07:31:46.298Z,74.46
2022-12-31T07:34:15.927Z,76.40
2022-12-31T07:36:42.214Z,73.54
2022-12-31T07:39:11.909Z,74.36
2022-12-31T07:41:47.105Z,76.90
2022-12-31T07:44:34.697Z,78.32
2022-12-31T07:47:01.901Z,77.14
2022-12-31T07:49:31.637Z,77.40
2022-12-31T07:52:00.951Z,76.95
2022-12-31T07:54:27.275Z,78.77
2022-12-31T07:56:53.715Z,77.08
2022-12-31T07:59:46.403Z,75.55
2022-12-31T08:02:27.865Z,76.66
2022-12-31T08:05:00.388Z,79.02
2022-12-31T08:07:29.785Z,75.15
2022-12-31T08:10:17.995Z,77.84
2022-12-31T08:12:45.496Z,76.12
2022-12-31T08:15:12.885Z,75.27
2022-12-31T08:17:39.336Z,74.15
2022-12-31T08:20:05.932Z,73.03
2022-12-31T08:22:43.104Z,75.19
2022-12-31T08:25:23.118Z,74.24
2022-12-31T08:27:52.493Z,76.81
2022-12-31T08:30:23.551Z,75.42
2022-12-31T08:33:02.168Z,77.18
2022-12-31T08:35:48.729Z,77.76
2022-12-31T08:38:33.645Z,78.27
2022-12-31T08:41:00.049Z,73.32
2022-12-31T08:43:49.673Z,78.92
2022-12-31T08:46:36.300Z,75.18
2022-12-31T08:49:02.754Z,76.21
2022-12-31T08:51:29.196Z,74.44
2022-12-31T08:53:55.733Z,76.80
2022-12-31T08:56:50.317Z,75.15
2022-12-31T08:59:20.185Z,73.35
2022-12-31T09:01:56.208Z,71.56
2022-12-31T09:04:30.311Z,77.06
2022-12-31T09:07:01.539Z,75.39
2022-12-31T09:09:36.284Z,73.92
2022-12-31T09:12:08.745Z,75.95
2022-12-31T09:14:47.104Z,77.42
2022-12-31T09:17:13.502Z,73.01
2022-12-31T09:19:39.809Z,74.87
2022-12-31T09:22:06.306Z,77.66
2022-12-31T09:24:32.786Z,78.39
2022-12-31T09:27:22.474Z,80.87
2022-12-31T09:29:53.781Z,77.35
2022-12-31T09:32:23.150Z,75.42
2022-12-31T09:34:55.104Z,73.68
2022-12-31T09:37:41.678Z,75.39
2022-12-31T09:40:28.025Z,77.97
2022-12-31T09:43:06.167Z,74.41
2022-12-31T09:45:55.212Z,76.17
2022-12-31T09:48:40.530Z,74.27
2022-12-31T09:51:06.966Z,74.35
2022-12-31T09:53:36.546Z,72.03
2022-12-31T09:56:05.834Z,71.69
2022-12-31T09:58:32.375Z,71.47
2022-12-31T10:01:24.610Z,72.97
2022-12-31T10:04:06.297Z,72.03
2022-12-31T10:06:39.042Z,72.85
2022-12-31T10:09:08.383Z,70.81
2022-12-31T10:11:37.942Z,70.31
2022-12-31T10:14:10.301Z,72.53
2022-12-31T10:16:49.621Z,71.23
2022-12-31T10:19:51.697Z,73.23
2022-12-31T10:22:27.848Z,73.08
2022-12-31T10:25:03.348Z,73.78
2022-12-31T10:27:34.010Z,72.03
2022-12-31T10:30:04.028Z,71.62
2022-12-31T10:32:33.663Z,74.65
2022-12-31T10:35:02.269Z,76.19
2022-12-31T10:37:40.433Z,73.76
2022-12-31T10:40:16.005Z,79.22
2022-12-31T10:42:42.445Z,78.38
2022-12-31T10:45:30.425Z,76.52
2022-12-31T10:48:15.755Z,74.13
2022-12-31T10:51:02.532Z,75.63
2022-12-31T10:54:00.950Z,77.14
2022-12-31T10:56:46.153Z,78.64
2022-12-31T10:59:27.815Z,76.16
2022-12-31T11:01:54.209Z,76.61
2022-12-31T11:04:39.243Z,74.56
2022-12-31T11:07:14.963Z,77.75
2022-12-31T11:09:41.216Z,76.01
2022-12-31T11:12:21.206Z,75.99
2022-12-31T11:14:47.709Z,78.04
2022-12-31T11:17:14.142Z,80.74
2022-12-31T11:19:59.167Z,83.57
2022-12-31T11:22:25.486Z,80.93
2022-12-31T11:25:10.685Z,83.56
2022-12-31T11:27:49.645Z,79.61
2022-12-31T11:30:25.203Z,81.11
2022-12-31T11:32:51.574Z,80.09
2022-12-31T11:35:17.880Z,83.32
2022-12-31T11:38:01.005Z,84.02
2022-12-31T11:40:36.767Z,81.63
2022-12-31T11:43:03.091Z,81.01
2022-12-31T11:45:52.739Z,82.59
2022-12-31T11:48:32.705Z,89.71
2022-12-31T11:50:59.344Z,87.47
2022-12-31T11:53:28.870Z,86.34
2022-12-31T11:56:01.473Z,81.41
2022-12-31T11:58:29.077Z,86.51
2022-12-31T12:01:07.851Z,84.55
2022-12-31T12:03:38.531Z,86.93
2022-12-31T12:06:05.183Z,88.37
2022-12-31T12:08:32.552Z,89.50
2022-12-31T12:11:03.967Z,85.95
2022-12-31T12:13:30.276Z,90.19
2022-12-31T12:16:06.145Z,87.43
2022-12-31T12:18:40.734Z,85.52
2022-12-31T12:21:17.519Z,91.22
2022-12-31T12:23:57.561Z,89.01
2022-12-31T12:26:34.199Z,88.16
2022-12-31T12:29:09.375Z,84.13
2022-12-31T12:31:36.122Z,84.30
2022-12-31T12:34:03.137Z,83.83
2022-12-31T12:36:29.502Z,85.63
2022-12-31T12:39:03.707Z,88.10
2022-12-31T12:41:30.479Z,90.21
2022-12-31T12:44:04.512Z,88.04
2022-12-31T12:46:33.249Z,88.52
2022-12-31T12:49:00.299Z,85.43
2022-12-31T12:51:29.682Z,85.60
2022-12-31T12:54:01.650Z,82.22
2022-12-31T12:56:39.601Z,78.60
2022-12-31T12:59:21.737Z,80.56
2022-12-31T13:02:02.427Z,80.17
2022-12-31T13:04:47.914Z,80.64
2022-12-31T13:07:44.651Z,84.17
2022-12-31T13:10:20.952Z,89.01
2022-12-31T13:13:22.919Z,86.33
2022-12-31T13:15:36.372Z,87.05
2022-12-31T13:18:21.722Z,86.60
2022-12-31T13:20:54.581Z,80.73
2022-12-31T13:23:39.634Z,82.86
2022-12-31T13:26:32.906Z,82.26
2022-12-31T13:29:02.013Z,83.20
2022-12-31T13:31:33.831Z,83.34
2022-12-31T13:34:02.721Z,85.22
2022-12-31T13:36:32.713Z,83.47
2022-12-31T13:39:00.776Z,83.81
2022-12-31T13:41:30.228Z,78.81
2022-12-31T13:43:58.978Z,78.09
2022-12-31T13:46:32.497Z,80.49
2022-12-31T13:49:01.968Z,83.05
2022-12-31T13:51:41.911Z,83.47
2022-12-31T13:54:26.763Z,82.52
2022-12-31T13:56:54.103Z,81.00
2022-12-31T13:59:22.469Z,81.42
2022-12-31T14:01:54.829Z,88.12
2022-12-31T14:04:30.841Z,86.93
2022-12-31T14:07:00.295Z,88.85
2022-12-31T14:09:28.947Z,90.31
2022-12-31T14:12:14.041Z,88.46
2022-12-31T14:14:43.626Z,89.65
2022-12-31T14:17:34.274Z,87.60
2022-12-31T14:20:22.184Z,88.71
2022-12-31T14:23:07.621Z,87.11
2022-12-31T14:25:52.231Z,85.90
2022-12-31T14:28:25.469Z,82.71
2022-12-31T14:30:59.310Z,82.57
2022-12-31T14:33:28.899Z,88.59
2022-12-31T14:36:14.061Z,96.63
2022-12-31T14:38:59.623Z,94.15
2022-12-31T14:41:26.527Z,86.94
2022-12-31T14:44:08.085Z,84.55
2022-12-31T14:46:37.595Z,86.54
2022-12-31T14:49:16.046Z,84.30
2022-12-31T14:51:42.482Z,86.12
2022-12-31T14:54:29.044Z,77.77
2022-12-31T14:56:55.734Z,74.34
2022-12-31T14:59:34.415Z,75.90
2022-12-31T15:02:25.176Z,77.42
2022-12-31T15:05:03.294Z,83.53
2022-12-31T15:07:35.565Z,77.13
2022-12-31T15:10:23.114Z,79.96
2022-12-31T15:13:01.579Z,90.15
2022-12-31T15:15:35.085Z,88.12
2022-12-31T15:18:22.754Z,85.48
2022-12-31T15:20:55.268Z,84.02
2022-12-31T15:23:23.227Z,82.76
2022-12-31T15:25:52.949Z,82.57
2022-12-31T15:28:42.275Z,80.25
2022-12-31T15:31:20.075Z,82.89
2022-12-31T15:33:55.148Z,84.48
2022-12-31T15:36:39.021Z,82.50
2022-12-31T15:39:11.633Z,84.90
2022-12-31T15:42:10.311Z,84.90
2022-12-31T15:44:52.652Z,78.48
2022-12-31T15:47:28.257Z,85.15
2022-12-31T15:49:55.401Z,87.09
2022-12-31T15:52:42.655Z,83.28
2022-12-31T15:55:16.353Z,83.34
2022-12-31T15:57:43.532Z,87.68
2022-12-31T16:00:21.874Z,88.21
2022-12-31T16:02:57.096Z,90.45
2022-12-31T16:05:26.384Z,86.74
2022-12-31T16:08:01.841Z,89.07
2022-12-31T16:10:34.831Z,88.91
2022-12-31T16:13:10.722Z,84.59
2022-12-31T16:15:43.091Z,85.94
2022-12-31T16:18:10.847Z,83.12
2022-12-31T16:20:42.420Z,92.32
2022-12-31T16:23:27.808Z,89.83
2022-12-31T16:26:02.804Z,89.73
2022-12-31T16:28:33.325Z,86.33
2022-12-31T16:31:04.019Z,84.96
2022-12-31T16:33:31.333Z,80.21
2022-12-31T16:35:59.368Z,83.23
2022-12-31T16:38:39.098Z,83.53
2022-12-31T16:41:22.223Z,85.97
2022-12-31T16:43:49.509Z,83.03
2022-12-31T16:46:42.906Z,82.10
2022-12-31T16:49:22.484Z,83.77
2022-12-31T16:51:49.719Z,83.68
2022-12-31T16:54:36.508Z,79.60
2022-12-31T16:57:06.176Z,80.64
2022-12-31T16:59:45.240Z,81.53
2022-12-31T17:02:25.617Z,84.44
2022-12-31T17:04:56.546Z,83.80
2022-12-31T17:07:37.583Z,84.78
2022-12-31T17:10:13.820Z,81.00
2022-12-31T17:13:25.593Z,81.03
2022-12-31T17:15:40.816Z,84.09
2022-12-31T17:18:08.322Z,82.16
2022-12-31T17:20:39.429Z,84.69
2022-12-31T17:23:12.689Z,81.90
2022-12-31T17:25:42.892Z,85.22
2022-12-31T17:28:23.827Z,83.50
2022-12-31T17:30:50.739Z,82.99
2022-12-31T17:33:24.209Z,79.98
2022-12-31T17:36:09.278Z,82.56
2022-12-31T17:38:36.076Z,85.25
2022-12-31T17:41:09.116Z,93.74
2022-12-31T17:43:38.014Z,85.27
2022-12-31T17:46:34.036Z,80.94
2022-12-31T17:49:09.875Z,81.87
2022-12-31T17:51:45.531Z,83.26
2022-12-31T17:54:15.362Z,78.71
2022-12-31T17:56:47.656Z,81.34
2022-12-31T17:59:25.816Z,79.41
2022-12-31T18:01:57.723Z,79.36
2022-12-31T18:04:24.434Z,83.37
2022-12-31T18:06:56.810Z,80.28
2022-12-31T18:09:26.221Z,77.71
2022-12-31T18:12:01.286Z,81.79
2022-12-31T18:14:36.970Z,79.53
2022-12-31T18:17:03.547Z,77.30
2022-12-31T18:20:03.558Z,79.17
2022-12-31T18:22:20.593Z,77.00
2022-12-31T18:24:54.985Z,78.83
2022-12-31T18:27:32.230Z,78.08
2022-12-31T18:30:05.114Z,76.19
2022-12-31T18:32:40.805Z,76.04
2022-12-31T18:35:40.392Z,77.69
2022-12-31T18:38:10.835Z,77.60
2022-12-31T18:40:46.835Z,79.57
2022-12-31T18:43:15.353Z,75.23
2022-12-31T18:45:42.727Z,79.32
2022-12-31T18:48:09.579Z,80.42
2022-12-31T18:50:36.507Z,89.57
2022-12-31T18:53:10.019Z,86.89
2022-12-31T18:55:40.227Z,88.75
2022-12-31T18:58:07.405Z,86.61
2022-12-31T19:00:42.017Z,89.16
2022-12-31T19:03:19.354Z,84.92
2022-12-31T19:05:50.683Z,84.86
2022-12-31T19:08:24.160Z,89.05
2022-12-31T19:10:53.852Z,86.50
2022-12-31T19:13:23.288Z,82.75
2022-12-31T19:15:51.558Z,81.05
2022-12-31T19:18:20.738Z,77.79
2022-12-31T19:20:50.987Z,74.00
2022-12-31T19:23:19.007Z,75.26
2022-12-31T19:25:49.359Z,82.16
2022-12-31T19:28:22.821Z,75.51
2022-12-31T19:30:56.003Z,77.01
2022-12-31T19:33:25.564Z,78.60
2022-12-31T19:35:57.911Z,80.17
2022-12-31T19:38:28.868Z,82.18
2022-12-31T19:40:58.998Z,83.92
2022-12-31T19:43:28.371Z,79.28
2022-12-31T19:45:55.105Z,80.64
2022-12-31T19:48:32.376Z,83.43
2022-12-31T19:51:03.614Z,83.43
2022-12-31T19:53:34.366Z,86.39
2022-12-31T19:56:06.534Z,79.19
2022-12-31T19:58:33.179Z,86.57
2022-12-31T20:01:02.799Z,87.74
2022-12-31T20:03:36.739Z,84.96
2022-12-31T20:06:05.453Z,84.16
2022-12-31T20:08:39.440Z,82.65
2022-12-31T20:11:14.069Z,90.25
2022-12-31T20:13:44.248Z,85.62
2022-12-31T20:16:15.363Z,88.63
2022-12-31T20:18:45.602Z,88.99
2022-12-31T20:21:17.852Z,81.88
2022-12-31T20:23:44.607Z,83.82
2022-12-31T20:26:14.504Z,86.23
2022-12-31T20:28:47.004Z,82.38
2022-12-31T20:31:14.838Z,79.51
2022-12-31T20:33:45.344Z,80.88
2022-12-31T20:36:18.804Z,80.78
2022-12-31T20:38:51.195Z,80.03
2022-12-31T20:41:22.235Z,76.66
2022-12-31T20:43:49.047Z,79.95
2022-12-31T20:46:24.345Z,78.14
2022-12-31T20:48:51.694Z,75.91
2022-12-31T20:51:24.867Z,73.94
2022-12-31T20:53:58.885Z,79.79
2022-12-31T20:56:29.684Z,78.02
2022-12-31T20:58:59.168Z,76.63
2022-12-31T21:01:55.178Z,76.86
2022-12-31T21:04:22.495Z,74.98
2022-12-31T21:06:51.481Z,76.24
2022-12-31T21:09:22.025Z,75.25
2022-12-31T21:12:07.153Z,74.32
2022-12-31T21:14:41.322Z,72.90
2022-12-31T21:17:14.816Z,72.19
2022-12-31T21:19:41.849Z,70.64
2022-12-31T21:22:08.848Z,72.38
2022-12-31T21:24:35.453Z,72.53
2022-12-31T21:27:05.019Z,69.42
2022-12-31T21:29:50.371Z,71.22
2022-12-31T21:32:26.560Z,70.83
2022-12-31T21:35:14.981Z,71.57
2022-12-31T21:37:57.907Z,69.20
2022-12-31T21:40:27.762Z,70.29
2022-12-31T21:42:58.377Z,68.00
2022-12-31T21:45:27.942Z,66.92
2022-12-31T21:48:13.020Z,69.70
2022-12-31T21:50:39.681Z,67.78
2022-12-31T21:53:06.250Z,66.36
2022-12-31T21:55:51.364Z,66.53
2022-12-31T21:58:27.050Z,67.08
2022-12-31T22:01:13.047Z,66.87
2022-12-31T22:03:45.307Z,66.35
2022-12-31T22:06:20.636Z,63.88
2022-12-31T22:08:48.824Z,65.12
2022-12-31T22:11:18.729Z,62.69
2022-12-31T22:13:48.844Z,61.91
2022-12-31T22:16:17.302Z,61.54
2022-12-31T22:18:44.522Z,62.16
2022-12-31T22:21:18.775Z,61.94
2022-12-31T22:23:50.032Z,62.04
2022-12-31T22:26:17.539Z,63.47
2022-12-31T22:28:47.503Z,61.10
2022-12-31T22:31:19.797Z,61.13
2022-12-31T22:33:49.278Z,59.70
2022-12-31T22:36:17.774Z,62.47
2022-12-31T22:38:44.484Z,60.19
2022-12-31T22:41:15.704Z,58.80
2022-12-31T22:43:46.119Z,59.51
2022-12-31T22:46:19.089Z,59.84
2022-12-31T22:48:46.425Z,61.25
2022-12-31T22:51:16.359Z,59.78
2022-12-31T22:53:48.320Z,59.69
2022-12-31T22:56:17.941Z,58.74
2022-12-31T22:58:48.703Z,59.97
2022-12-31T23:01:20.250Z,59.57
2022-12-31T23:03:51.209Z,59.74
2022-12-31T23:06:21.236Z,60.51
2022-12-31T23:09:06.938Z,60.23
2022-12-31T23:11:36.863Z,58.84
2022-12-31T23:14:22.557Z,59.00
2022-12-31T23:17:30.818Z,55.56
2022-12-31T23:20:16.100Z,55.41
2022-12-31T23:23:01.150Z,56.14
2022-12-31T23:25:33.412Z,58.20
2022-12-31T23:28:05.323Z,55.06
2022-12-31T23:30:32.236Z,55.94
2022-12-31T23:33:04.921Z,56.03
2022-12-31T23:35:37.988Z,56.05
2022-12-31T23:38:04.824Z,56.44
2022-12-31T23:40:34.560Z,56.08
2022-12-31T23:43:05.603Z,55.57
2022-12-31T23:45:36.309Z,55.27
2022-12-31T23:48:03.079Z,55.38
2022-12-31T23:50:29.621Z,53.97
2022-12-31T23:52:56.219Z,54.70
2022-12-31T23:55:28.524Z,53.45
2022-12-31T23:57:57.907Z,54.39
